Time;durP1;ratioP1;P1;durP2;ratioP2;P2;SDS_P1;SDS_P2;PMS_P1;PMS_P2;Temp;Humidity;BMP_temperature;BMP_pressure;BME280_temperature;BME280_humidity;BME280_pressure;Samples;Min_cycle;Max_cycle;Signal;HPM_P1;HPM_P2
2022/11/13 00:00:58;;;;;;;;;;;9.00;96.30;;;;;;5059031;28;19932;-71
2022/11/13 00:03:29;;;;;;;;;;;9.00;96.30;;;;;;5058487;28;19928;-70
2022/11/13 00:06:00;;;;;;;;;;;9.00;96.30;;;;;;5061618;28;19936;-71
2022/11/13 00:08:26;;;;;;;;;;;9.00;96.30;;;;;;5055935;28;19940;-71
2022/11/13 00:10:59;;;;;;;;;;;9.00;96.30;;;;;;5059619;28;19934;-70
2022/11/13 00:13:25;;;;;;;;;;;9.00;96.60;;;;;;5058196;28;19928;-72
2022/11/13 00:15:56;;;;;;;;;;;9.00;96.30;;;;;;5057331;28;19928;-70
2022/11/13 00:18:22;;;;;;;;;;;9.00;96.30;;;;;;5057365;28;19935;-71
2022/11/13 00:20:49;;;;;;;;;;;9.00;96.30;;;;;;5053800;28;19928;-70
2022/11/13 00:23:17;;;;;;;;;;;8.90;96.30;;;;;;5058600;28;19928;-71
2022/11/13 00:25:43;;;;;;;;;;;8.90;96.30;;;;;;5058090;28;20010;-68
2022/11/13 00:28:10;;;;;;;;;;;8.90;96.30;;;;;;5058699;28;19929;-70
2022/11/13 00:30:37;;;;;;;;;;;8.90;96.30;;;;;;5058265;28;19929;-71
2022/11/13 00:33:03;;;;;;;;;;;8.90;96.30;;;;;;5054190;28;19935;-70
2022/11/13 00:35:31;;;;;;;;;;;8.90;96.30;;;;;;5057594;28;19936;-70
2022/11/13 00:37:58;;;;;;;;;;;8.90;96.30;;;;;;5058583;28;19928;-71
2022/11/13 00:40:26;;;;;;;;;;;8.90;96.30;;;;;;5061650;28;19929;-69
2022/11/13 00:42:53;;;;;;;;;;;8.90;96.30;;;;;;5054116;28;19932;-70
2022/11/13 00:45:19;;;;;;;;;;;8.90;96.30;;;;;;5054243;28;19948;-70
2022/11/13 00:47:46;;;;;;;;;;;8.90;96.30;;;;;;5056736;28;19931;-70
2022/11/13 00:50:12;;;;;;;;;;;8.90;96.30;;;;;;5058406;28;19932;-71
2022/11/13 00:52:39;;;;;;;;;;;8.80;96.30;;;;;;5058905;28;19933;-71
2022/11/13 00:55:06;;;;;;;;;;;8.80;96.30;;;;;;5056432;28;19983;-71
2022/11/13 00:57:34;;;;;;;;;;;8.80;96.30;;;;;;5063101;28;20388;-71
2022/11/13 01:00:00;;;;;;;;;;;8.80;96.30;;;;;;5062173;28;19928;-71
2022/11/13 01:02:27;;;;;;;;;;;8.80;96.60;;;;;;5064933;28;19928;-71
2022/11/13 01:04:53;;;;;;;;;;;8.80;96.30;;;;;;5059261;28;19952;-71
2022/11/13 01:07:20;;;;;;;;;;;8.80;96.30;;;;;;5060878;28;19943;-71
2022/11/13 01:09:49;;;;;;;;;;;8.80;96.30;;;;;;5063825;28;19940;-70
2022/11/13 01:12:15;;;;;;;;;;;8.80;96.30;;;;;;5059415;28;19929;-71
2022/11/13 01:14:43;;;;;;;;;;;8.80;96.30;;;;;;5063014;28;19936;-71
2022/11/13 01:17:10;;;;;;;;;;;8.80;96.60;;;;;;5061016;28;20355;-70
2022/11/13 01:19:36;;;;;;;;;;;8.80;96.30;;;;;;5058434;28;20410;-70
2022/11/13 01:22:03;;;;;;;;;;;8.70;96.30;;;;;;5057796;28;19928;-70
2022/11/13 01:24:30;;;;;;;;;;;8.70;96.30;;;;;;5062252;28;19982;-70
2022/11/13 01:26:57;;;;;;;;;;;8.80;96.30;;;;;;5056755;28;19928;-70
2022/11/13 01:29:24;;;;;;;;;;;8.70;96.30;;;;;;5056790;28;19932;-69
2022/11/13 01:31:51;;;;;;;;;;;8.70;96.30;;;;;;5057405;28;19936;-71
2022/11/13 01:34:18;;;;;;;;;;;8.70;96.30;;;;;;5058066;28;19933;-71
2022/11/13 01:36:45;;;;;;;;;;;8.70;96.40;;;;;;5063061;28;19945;-71
2022/11/13 01:39:11;;;;;;;;;;;8.70;96.40;;;;;;5058074;28;19928;-70
2022/11/13 01:41:38;;;;;;;;;;;8.70;96.40;;;;;;5063875;28;19932;-71
2022/11/13 01:44:06;;;;;;;;;;;8.70;96.40;;;;;;5065070;28;19929;-71
2022/11/13 01:46:34;;;;;;;;;;;8.70;96.40;;;;;;5063902;28;20384;-70
2022/11/13 01:49:20;;;;;;;;;;;8.60;96.30;;;;;;5061759;28;19966;-70
2022/11/13 01:51:49;;;;;;;;;;;8.60;96.30;;;;;;5065514;28;19924;-72
2022/11/13 01:54:17;;;;;;;;;;;8.60;96.30;;;;;;5063732;28;19924;-71
2022/11/13 01:56:43;;;;;;;;;;;8.70;96.40;;;;;;5060492;28;20141;-70
2022/11/13 01:59:12;;;;;;;;;;;8.60;96.30;;;;;;5064532;28;19928;-70
2022/11/13 02:01:39;;;;;;;;;;;8.60;96.30;;;;;;5060445;28;19928;-71
2022/11/13 02:04:07;;;;;;;;;;;8.60;96.30;;;;;;5064568;28;19950;-70
2022/11/13 02:06:36;;;;;;;;;;;8.60;96.30;;;;;;5064189;28;20438;-70
2022/11/13 02:09:03;;;;;;;;;;;8.60;96.30;;;;;;5059335;28;19928;-70
2022/11/13 02:11:29;;;;;;;;;;;8.60;96.30;;;;;;5059021;28;19928;-71
2022/11/13 02:13:56;;;;;;;;;;;8.60;96.40;;;;;;5057820;28;19933;-71
2022/11/13 02:16:23;;;;;;;;;;;8.60;96.40;;;;;;5064910;28;19932;-71
2022/11/13 02:18:50;;;;;;;;;;;8.50;96.30;;;;;;5057317;28;20316;-70
2022/11/13 02:21:23;;;;;;;;;;;8.60;96.40;;;;;;5057375;28;19928;-71
2022/11/13 02:23:54;;;;;;;;;;;8.60;96.40;;;;;;5063506;28;20336;-70
2022/11/13 02:26:23;;;;;;;;;;;8.50;96.30;;;;;;5063809;28;19932;-71
2022/11/13 02:28:50;;;;;;;;;;;8.50;96.30;;;;;;5059869;28;19935;-71
2022/11/13 02:31:16;;;;;;;;;;;8.50;96.40;;;;;;5056244;28;19944;-71
2022/11/13 02:33:43;;;;;;;;;;;8.50;96.40;;;;;;5058317;28;19932;-71
2022/11/13 02:36:11;;;;;;;;;;;8.50;96.40;;;;;;5064366;28;19940;-71
2022/11/13 02:38:39;;;;;;;;;;;8.50;96.40;;;;;;5062512;28;19943;-70
2022/11/13 02:41:05;;;;;;;;;;;8.50;96.40;;;;;;5056068;28;19933;-70
2022/11/13 02:43:33;;;;;;;;;;;8.50;96.40;;;;;;5064138;28;19928;-71
2022/11/13 02:46:00;;;;;;;;;;;8.50;96.40;;;;;;5058371;28;20254;-71
2022/11/13 02:48:26;;;;;;;;;;;8.50;96.40;;;;;;5062857;28;19995;-70
2022/11/13 02:50:53;;;;;;;;;;;8.50;96.40;;;;;;5058077;28;20243;-71
2022/11/13 02:53:19;;;;;;;;;;;8.50;96.40;;;;;;5063485;28;19933;-70
2022/11/13 02:55:46;;;;;;;;;;;8.50;96.40;;;;;;5060927;28;20201;-71
2022/11/13 02:58:12;;;;;;;;;;;8.40;96.40;;;;;;5063315;28;19995;-71
2022/11/13 03:00:40;;;;;;;;;;;8.40;96.40;;;;;;5059104;28;19929;-71
2022/11/13 03:03:07;;;;;;;;;;;8.40;96.60;;;;;;5062251;28;19935;-71
2022/11/13 03:05:33;;;;;;;;;;;8.40;96.40;;;;;;5059022;28;19928;-71
2022/11/13 03:08:00;;;;;;;;;;;8.40;96.40;;;;;;5056294;28;20388;-71
2022/11/13 03:10:26;;;;;;;;;;;8.40;96.40;;;;;;5055195;28;20396;-71
2022/11/13 03:12:53;;;;;;;;;;;8.40;96.40;;;;;;5055645;28;19934;-70
2022/11/13 03:15:20;;;;;;;;;;;8.40;96.40;;;;;;5056738;28;19940;-70
2022/11/13 03:17:48;;;;;;;;;;;8.40;96.40;;;;;;5057296;28;19928;-71
2022/11/13 03:20:14;;;;;;;;;;;8.40;96.40;;;;;;5056184;28;19951;-68
2022/11/13 03:22:41;;;;;;;;;;;8.40;96.40;;;;;;5059628;28;19933;-71
2022/11/13 03:25:09;;;;;;;;;;;8.40;96.40;;;;;;5056349;28;19925;-71
2022/11/13 03:27:35;;;;;;;;;;;8.40;96.50;;;;;;5057565;28;19928;-71
2022/11/13 03:30:02;;;;;;;;;;;8.40;96.50;;;;;;5058346;28;19936;-71
2022/11/13 03:32:28;;;;;;;;;;;8.40;96.50;;;;;;5055397;28;19941;-72
2022/11/13 03:34:56;;;;;;;;;;;8.30;96.40;;;;;;5051633;28;19929;-71
2022/11/13 03:37:23;;;;;;;;;;;8.40;96.50;;;;;;5057879;28;19928;-70
2022/11/13 03:39:51;;;;;;;;;;;8.30;96.50;;;;;;5053809;28;20126;-71
2022/11/13 03:42:18;;;;;;;;;;;8.30;96.50;;;;;;5055696;28;20411;-71
2022/11/13 03:44:45;;;;;;;;;;;8.30;96.40;;;;;;5056779;28;20059;-71
2022/11/13 03:47:11;;;;;;;;;;;8.30;96.50;;;;;;5053044;28;19932;-71
2022/11/13 03:49:38;;;;;;;;;;;8.30;96.50;;;;;;5055909;28;19928;-71
2022/11/13 03:52:06;;;;;;;;;;;8.30;96.50;;;;;;5057318;28;19929;-70
2022/11/13 03:54:32;;;;;;;;;;;8.30;96.50;;;;;;5060684;28;19971;-71
2022/11/13 03:56:59;;;;;;;;;;;8.30;96.50;;;;;;5057659;28;19938;-71
2022/11/13 03:59:26;;;;;;;;;;;8.30;96.50;;;;;;5061053;28;19936;-71
2022/11/13 04:01:52;;;;;;;;;;;8.30;96.50;;;;;;5049918;28;19925;-71
2022/11/13 04:04:19;;;;;;;;;;;8.20;96.50;;;;;;5055185;28;19929;-70
2022/11/13 04:06:46;;;;;;;;;;;8.20;96.50;;;;;;5056130;28;20643;-71
2022/11/13 04:09:14;;;;;;;;;;;8.20;96.50;;;;;;5056387;28;19929;-71
2022/11/13 04:11:40;;;;;;;;;;;8.20;96.50;;;;;;5056043;28;19928;-71
2022/11/13 04:14:07;;;;;;;;;;;8.20;96.50;;;;;;5057141;28;20664;-71
2022/11/13 04:16:34;;;;;;;;;;;8.20;96.50;;;;;;5054585;28;19931;-71
2022/11/13 04:19:00;;;;;;;;;;;8.20;96.50;;;;;;5062337;28;19947;-70
2022/11/13 04:21:27;;;;;;;;;;;8.20;96.50;;;;;;5052284;28;19929;-71
2022/11/13 04:23:54;;;;;;;;;;;8.20;96.50;;;;;;5056321;28;20017;-71
2022/11/13 04:26:22;;;;;;;;;;;8.20;96.50;;;;;;5062236;28;19928;-70
2022/11/13 04:28:48;;;;;;;;;;;8.20;96.50;;;;;;5055478;28;19936;-71
2022/11/13 04:31:15;;;;;;;;;;;8.20;96.50;;;;;;5062289;28;19928;-71
2022/11/13 04:33:41;;;;;;;;;;;8.20;96.50;;;;;;5065396;28;19933;-71
2022/11/13 04:36:08;;;;;;;;;;;8.20;96.50;;;;;;5065960;28;20396;-71
2022/11/13 04:38:35;;;;;;;;;;;8.20;96.50;;;;;;5066206;28;19935;-70
2022/11/13 04:43:47;;;;;;;;;;;8.10;96.50;;;;;;5063982;28;20311;-71
2022/11/13 04:46:13;;;;;;;;;;;8.10;96.50;;;;;;5062315;28;19928;-71
2022/11/13 04:48:40;;;;;;;;;;;8.10;96.50;;;;;;5064722;28;19932;-70
2022/11/13 04:51:06;;;;;;;;;;;8.10;96.50;;;;;;5061319;28;19935;-71
2022/11/13 04:53:33;;;;;;;;;;;8.10;96.50;;;;;;5065050;28;19932;-71
2022/11/13 04:56:00;;;;;;;;;;;8.10;96.50;;;;;;5060558;28;20019;-71
2022/11/13 04:58:26;;;;;;;;;;;8.10;96.60;;;;;;5061567;28;19928;-71
2022/11/13 05:00:54;;;;;;;;;;;8.10;96.60;;;;;;5061454;28;19928;-71
2022/11/13 05:03:21;;;;;;;;;;;8.10;96.60;;;;;;5059735;28;19932;-71
2022/11/13 05:05:47;;;;;;;;;;;8.10;96.60;;;;;;5063137;28;19932;-70
2022/11/13 05:08:14;;;;;;;;;;;8.10;96.60;;;;;;5059966;28;19928;-70
2022/11/13 05:10:40;;;;;;;;;;;8.00;96.60;;;;;;5058650;28;19933;-70
2022/11/13 05:13:07;;;;;;;;;;;8.00;96.60;;;;;;5061598;28;19925;-71
2022/11/13 05:15:33;;;;;;;;;;;8.00;96.60;;;;;;5061566;28;19936;-70
2022/11/13 05:18:01;;;;;;;;;;;8.00;96.60;;;;;;5057824;28;19932;-70
2022/11/13 05:20:28;;;;;;;;;;;8.00;96.60;;;;;;5061236;28;19924;-70
2022/11/13 05:22:54;;;;;;;;;;;8.00;96.60;;;;;;5060143;28;19935;-70
2022/11/13 05:25:21;;;;;;;;;;;8.00;96.60;;;;;;5063817;28;19931;-70
2022/11/13 05:27:47;;;;;;;;;;;8.00;96.70;;;;;;5063406;28;19928;-70
2022/11/13 05:30:14;;;;;;;;;;;8.00;96.70;;;;;;5055058;28;19936;-71
2022/11/13 05:32:41;;;;;;;;;;;8.00;96.70;;;;;;5056804;28;19935;-70
2022/11/13 05:35:09;;;;;;;;;;;8.00;96.60;;;;;;5059641;28;20635;-70
2022/11/13 05:37:35;;;;;;;;;;;8.00;96.60;;;;;;5061249;28;19932;-70
2022/11/13 05:40:02;;;;;;;;;;;8.00;96.70;;;;;;5058368;28;19928;-71
2022/11/13 05:42:28;;;;;;;;;;;8.00;96.70;;;;;;5056644;28;19936;-71
2022/11/13 05:44:55;;;;;;;;;;;7.90;96.60;;;;;;5061283;28;19936;-71
2022/11/13 05:47:22;;;;;;;;;;;8.00;96.70;;;;;;5059945;28;19952;-71
2022/11/13 05:49:48;;;;;;;;;;;7.90;96.70;;;;;;5060382;28;19935;-71
2022/11/13 05:52:16;;;;;;;;;;;7.90;96.60;;;;;;5059252;28;19932;-71
2022/11/13 05:54:43;;;;;;;;;;;7.90;96.70;;;;;;5057241;28;20054;-70
2022/11/13 05:57:09;;;;;;;;;;;7.90;96.70;;;;;;5059185;28;19951;-70
2022/11/13 05:59:36;;;;;;;;;;;7.90;96.60;;;;;;5058461;28;20382;-70
2022/11/13 06:02:02;;;;;;;;;;;7.90;96.60;;;;;;5058589;28;19928;-71
2022/11/13 06:04:29;;;;;;;;;;;7.90;96.70;;;;;;5057845;28;19939;-70
2022/11/13 06:06:55;;;;;;;;;;;7.90;96.70;;;;;;5056619;28;19933;-71
2022/11/13 06:09:23;;;;;;;;;;;7.90;96.70;;;;;;5055629;28;19944;-70
2022/11/13 06:11:50;;;;;;;;;;;7.90;96.70;;;;;;5053989;28;20578;-72
2022/11/13 06:14:16;;;;;;;;;;;7.90;96.70;;;;;;5056797;28;19936;-70
2022/11/13 06:16:43;;;;;;;;;;;7.80;96.70;;;;;;5059168;28;19928;-70
2022/11/13 06:19:10;;;;;;;;;;;7.80;96.70;;;;;;5057960;28;19935;-70
2022/11/13 06:21:37;;;;;;;;;;;7.80;96.70;;;;;;5056216;28;19928;-70
2022/11/13 06:24:04;;;;;;;;;;;7.80;96.70;;;;;;5057826;28;19963;-70
2022/11/13 06:26:33;;;;;;;;;;;7.80;96.70;;;;;;5056076;28;19939;-70
2022/11/13 06:29:00;;;;;;;;;;;7.80;96.70;;;;;;5058737;28;20561;-69
2022/11/13 06:31:27;;;;;;;;;;;7.80;96.70;;;;;;5055739;28;19936;-71
2022/11/13 06:33:54;;;;;;;;;;;7.80;96.70;;;;;;5055120;28;19928;-70
2022/11/13 06:36:23;;;;;;;;;;;7.80;96.60;;;;;;5058454;28;19940;-70
2022/11/13 06:38:50;;;;;;;;;;;7.80;96.60;;;;;;5052631;28;19936;-70
2022/11/13 06:41:17;;;;;;;;;;;7.80;96.60;;;;;;5053730;28;19935;-70
2022/11/13 06:43:46;;;;;;;;;;;7.80;96.50;;;;;;5058649;28;19932;-70
2022/11/13 06:46:14;;;;;;;;;;;7.80;96.60;;;;;;5055553;28;20007;-71
2022/11/13 06:48:41;;;;;;;;;;;7.70;96.50;;;;;;5052513;28;19940;-71
2022/11/13 06:51:09;;;;;;;;;;;7.70;96.50;;;;;;5055372;28;20419;-70
2022/11/13 06:53:36;;;;;;;;;;;7.70;96.50;;;;;;5054103;28;20602;-70
2022/11/13 06:56:04;;;;;;;;;;;7.70;96.50;;;;;;5059011;28;19952;-71
2022/11/13 06:58:31;;;;;;;;;;;7.70;96.50;;;;;;5059278;28;19936;-71
2022/11/13 07:01:04;;;;;;;;;;;7.70;96.50;;;;;;5052340;28;19936;-71
2022/11/13 07:03:30;;;;;;;;;;;7.70;96.50;;;;;;5056085;28;20311;-70
2022/11/13 07:05:57;;;;;;;;;;;7.70;96.40;;;;;;5050916;28;21319;-71
2022/11/13 07:08:23;;;;;;;;;;;7.70;96.40;;;;;;5056846;28;20413;-71
2022/11/13 07:10:54;;;;;;;;;;;7.60;96.40;;;;;;5056210;28;19943;-70
2022/11/13 07:13:21;;;;;;;;;;;7.60;96.50;;;;;;5056744;28;20015;-71
2022/11/13 07:15:47;;;;;;;;;;;7.70;96.50;;;;;;5054496;28;19982;-70
2022/11/13 07:18:15;;;;;;;;;;;7.60;96.50;;;;;;5054146;28;19929;-71
2022/11/13 07:20:42;;;;;;;;;;;7.60;96.50;;;;;;5053592;28;19928;-70
2022/11/13 07:23:08;;;;;;;;;;;7.60;96.50;;;;;;5060436;28;19933;-70
2022/11/13 07:25:35;;;;;;;;;;;7.60;96.50;;;;;;5053048;28;19928;-71
2022/11/13 07:28:02;;;;;;;;;;;7.50;96.50;;;;;;5048344;28;19929;-71
2022/11/13 07:30:28;;;;;;;;;;;7.60;96.50;;;;;;5052151;28;19936;-70
2022/11/13 07:32:55;;;;;;;;;;;7.50;96.50;;;;;;5048570;28;19929;-71
2022/11/13 07:35:23;;;;;;;;;;;7.60;96.50;;;;;;5051823;28;19937;-70
2022/11/13 07:37:49;;;;;;;;;;;7.60;96.50;;;;;;5054382;28;20415;-70
2022/11/13 07:40:16;;;;;;;;;;;7.60;96.50;;;;;;5055486;28;20789;-71
2022/11/13 07:42:43;;;;;;;;;;;7.50;96.40;;;;;;5061138;28;19932;-70
2022/11/13 07:45:09;;;;;;;;;;;7.50;96.40;;;;;;5052480;28;19929;-69
2022/11/13 07:47:36;;;;;;;;;;;7.60;96.50;;;;;;5054551;28;20423;-70
2022/11/13 07:50:03;;;;;;;;;;;7.50;96.50;;;;;;5052386;28;20396;-70
2022/11/13 07:52:30;;;;;;;;;;;7.50;96.50;;;;;;5056746;28;19933;-70
2022/11/13 07:54:57;;;;;;;;;;;7.50;96.50;;;;;;5056901;28;20634;-70
2022/11/13 07:57:24;;;;;;;;;;;7.50;96.50;;;;;;5056973;28;19929;-70
2022/11/13 07:59:50;;;;;;;;;;;7.50;96.50;;;;;;5053822;28;19939;-70
2022/11/13 08:02:17;;;;;;;;;;;7.50;96.50;;;;;;5059347;28;19936;-69
2022/11/13 08:04:43;;;;;;;;;;;7.50;96.50;;;;;;5055747;28;19931;-70
2022/11/13 08:07:10;;;;;;;;;;;7.50;96.40;;;;;;5062800;28;19935;-70
2022/11/13 08:09:39;;;;;;;;;;;7.50;96.50;;;;;;5057075;28;19932;-71
2022/11/13 08:12:05;;;;;;;;;;;7.50;96.50;;;;;;5058751;28;20021;-70
2022/11/13 08:14:32;;;;;;;;;;;7.50;96.50;;;;;;5060582;28;19935;-70
2022/11/13 08:16:58;;;;;;;;;;;7.50;96.50;;;;;;5051670;28;19932;-70
2022/11/13 08:19:25;;;;;;;;;;;7.50;96.50;;;;;;5058813;28;19936;-70
2022/11/13 08:21:52;;;;;;;;;;;7.50;96.50;;;;;;5059209;28;20725;-70
2022/11/13 08:24:18;;;;;;;;;;;7.50;96.50;;;;;;5061920;28;19936;-70
2022/11/13 08:26:46;;;;;;;;;;;7.50;96.50;;;;;;5061250;28;19933;-71
2022/11/13 08:29:12;;;;;;;;;;;7.50;96.50;;;;;;5063129;28;19924;-70
2022/11/13 08:31:39;;;;;;;;;;;7.50;96.50;;;;;;5060689;28;19928;-70
2022/11/13 08:34:06;;;;;;;;;;;7.50;96.50;;;;;;5058993;28;20647;-70
2022/11/13 08:36:32;;;;;;;;;;;7.50;96.50;;;;;;5061748;28;19935;-70
2022/11/13 08:38:59;;;;;;;;;;;7.50;96.40;;;;;;5059144;28;20332;-70
2022/11/13 08:41:25;;;;;;;;;;;7.50;96.40;;;;;;5057068;28;19928;-69
2022/11/13 08:43:53;;;;;;;;;;;7.50;96.40;;;;;;5064174;28;19935;-70
2022/11/13 08:46:20;;;;;;;;;;;7.50;96.30;;;;;;5063499;28;19924;-69
2022/11/13 08:48:46;;;;;;;;;;;7.50;96.30;;;;;;5053451;28;19993;-71
2022/11/13 08:51:13;;;;;;;;;;;7.50;96.30;;;;;;5063900;28;19929;-70
2022/11/13 08:53:39;;;;;;;;;;;7.50;96.30;;;;;;5064974;28;19928;-70
2022/11/13 08:56:06;;;;;;;;;;;7.50;96.30;;;;;;5060569;28;19929;-71
2022/11/13 08:58:33;;;;;;;;;;;7.50;96.30;;;;;;5060364;28;19928;-70
2022/11/13 09:01:01;;;;;;;;;;;7.50;96.30;;;;;;5056476;28;19936;-70
2022/11/13 09:03:28;;;;;;;;;;;7.50;96.30;;;;;;5059586;28;20335;-71
2022/11/13 09:05:54;;;;;;;;;;;7.50;96.20;;;;;;5056254;28;19935;-71
2022/11/13 09:08:21;;;;;;;;;;;7.50;96.20;;;;;;5064875;28;20372;-70
2022/11/13 09:10:47;;;;;;;;;;;7.60;96.20;;;;;;5058546;28;20356;-70
2022/11/13 09:13:14;;;;;;;;;;;7.60;96.10;;;;;;5062214;28;19932;-70
2022/11/13 09:15:41;;;;;;;;;;;7.60;96.10;;;;;;5062277;28;19935;-70
2022/11/13 09:18:09;;;;;;;;;;;7.60;96.00;;;;;;5056955;28;19929;-68
2022/11/13 09:20:36;;;;;;;;;;;7.60;96.00;;;;;;5055310;28;20573;-70
2022/11/13 09:23:03;;;;;;;;;;;7.60;95.90;;;;;;5062243;28;20477;-70
2022/11/13 09:25:31;;;;;;;;;;;7.60;95.90;;;;;;5057605;28;19939;-70
2022/11/13 09:27:58;;;;;;;;;;;7.60;95.90;;;;;;5061719;28;19933;-70
2022/11/13 09:30:26;;;;;;;;;;;7.70;96.20;;;;;;5052455;28;19932;-71
2022/11/13 09:32:53;;;;;;;;;;;7.70;95.80;;;;;;5057801;28;19932;-70
2022/11/13 09:35:32;;;;;;;;;;;7.70;95.80;;;;;;5064456;28;19928;-70
2022/11/13 09:37:59;;;;;;;;;;;7.80;95.90;;;;;;5059527;28;19928;-70
2022/11/13 09:40:29;;;;;;;;;;;7.70;95.70;;;;;;5056460;28;19951;-70
2022/11/13 09:42:56;;;;;;;;;;;7.70;95.70;;;;;;5058602;28;19929;-71
2022/11/13 09:45:22;;;;;;;;;;;7.70;95.70;;;;;;5055725;28;19952;-70
2022/11/13 09:47:51;;;;;;;;;;;7.70;95.70;;;;;;5062490;28;19935;-71
2022/11/13 09:50:20;;;;;;;;;;;7.80;95.60;;;;;;5059263;28;20020;-70
2022/11/13 09:52:48;;;;;;;;;;;7.80;95.60;;;;;;5062105;28;19928;-71
2022/11/13 09:55:16;;;;;;;;;;;7.80;95.50;;;;;;5058014;28;20724;-70
2022/11/13 09:57:47;;;;;;;;;;;7.90;95.50;;;;;;5051366;28;20574;-70
2022/11/13 10:00:16;;;;;;;;;;;7.90;95.40;;;;;;5055352;28;19932;-71
2022/11/13 10:02:49;;;;;;;;;;;7.90;95.30;;;;;;5051705;28;19932;-70
2022/11/13 10:05:21;;;;;;;;;;;7.90;95.20;;;;;;5054690;28;19931;-70
2022/11/13 10:07:52;;;;;;;;;;;8.00;95.20;;;;;;5059195;28;19944;-70
2022/11/13 10:10:37;;;;;;;;;;;8.00;95.10;;;;;;5055363;28;20700;-69
2022/11/13 10:13:04;;;;;;;;;;;8.00;95.10;;;;;;5060155;28;20351;-70
2022/11/13 10:15:31;;;;;;;;;;;8.10;95.20;;;;;;5057975;28;19932;-71
2022/11/13 10:18:00;;;;;;;;;;;8.10;95.10;;;;;;5053669;28;19929;-71
2022/11/13 10:20:29;;;;;;;;;;;8.00;95.00;;;;;;5057085;28;19936;-71
2022/11/13 10:23:04;;;;;;;;;;;8.10;95.00;;;;;;5054996;28;19943;-71
2022/11/13 10:25:32;;;;;;;;;;;8.10;95.00;;;;;;5054792;28;19935;-70
2022/11/13 10:28:00;;;;;;;;;;;8.20;95.00;;;;;;5060948;28;19928;-71
2022/11/13 10:30:28;;;;;;;;;;;8.30;94.90;;;;;;5046943;28;19952;-71
2022/11/13 10:33:01;;;;;;;;;;;8.30;94.80;;;;;;5057830;28;20331;-71
2022/11/13 10:35:37;;;;;;;;;;;8.40;94.70;;;;;;5057393;28;19935;-71
2022/11/13 10:38:06;;;;;;;;;;;8.40;94.50;;;;;;5054693;28;19940;-70
2022/11/13 10:40:33;;;;;;;;;;;8.50;94.40;;;;;;5054839;28;20401;-70
2022/11/13 10:43:07;;;;;;;;;;;8.50;94.30;;;;;;5055184;28;19932;-72
2022/11/13 10:45:34;;;;;;;;;;;8.60;94.20;;;;;;5058373;28;20128;-70
2022/11/13 10:48:00;;;;;;;;;;;8.70;94.00;;;;;;5057174;28;19935;-70
2022/11/13 10:50:28;;;;;;;;;;;8.80;93.90;;;;;;5060052;28;19947;-71
2022/11/13 10:52:55;;;;;;;;;;;8.80;94.00;;;;;;5058189;28;19924;-70
2022/11/13 10:55:26;;;;;;;;;;;8.90;93.80;;;;;;5056427;28;19951;-70
2022/11/13 10:57:57;;;;;;;;;;;8.90;93.70;;;;;;5062334;28;19932;-70
2022/11/13 11:00:25;;;;;;;;;;;8.90;93.70;;;;;;5054286;28;19932;-71
2022/11/13 11:02:51;;;;;;;;;;;8.90;93.80;;;;;;5052751;28;19964;-70
2022/11/13 11:05:20;;;;;;;;;;;9.00;93.80;;;;;;5062118;28;19929;-71
2022/11/13 11:07:47;;;;;;;;;;;8.90;93.80;;;;;;5054872;28;19939;-70
2022/11/13 11:10:20;;;;;;;;;;;9.00;93.90;;;;;;5053433;28;19932;-70
2022/11/13 11:12:53;;;;;;;;;;;9.00;93.90;;;;;;5055374;28;19940;-70
2022/11/13 11:15:21;;;;;;;;;;;9.00;93.90;;;;;;5056276;28;20472;-70
2022/11/13 11:17:49;;;;;;;;;;;9.00;93.90;;;;;;5057508;28;20396;-70
2022/11/13 11:20:20;;;;;;;;;;;9.00;93.90;;;;;;5055854;28;20061;-70
2022/11/13 11:22:48;;;;;;;;;;;9.00;94.00;;;;;;5053435;28;19935;-71
2022/11/13 11:25:17;;;;;;;;;;;9.00;94.00;;;;;;5054309;28;20384;-70
2022/11/13 11:27:46;;;;;;;;;;;9.10;93.70;;;;;;5060212;28;19932;-70
2022/11/13 11:30:18;;;;;;;;;;;9.10;93.70;;;;;;5053290;28;19975;-70
2022/11/13 11:32:46;;;;;;;;;;;9.20;93.90;;;;;;5060741;28;19929;-71
2022/11/13 11:35:14;;;;;;;;;;;9.20;93.80;;;;;;5062734;28;20312;-71
2022/11/13 11:37:46;;;;;;;;;;;9.30;93.90;;;;;;5059544;28;19928;-70
2022/11/13 11:40:16;;;;;;;;;;;9.30;93.90;;;;;;5056400;28;19936;-71
2022/11/13 11:42:45;;;;;;;;;;;9.40;93.80;;;;;;5059058;28;19943;-71
2022/11/13 11:45:15;;;;;;;;;;;9.50;93.40;;;;;;5053673;28;19924;-71
2022/11/13 11:47:43;;;;;;;;;;;9.50;93.40;;;;;;5057120;28;19935;-71
2022/11/13 11:50:12;;;;;;;;;;;9.60;93.30;;;;;;5058259;28;19959;-70
2022/11/13 11:52:52;;;;;;;;;;;9.60;93.30;;;;;;5056813;28;19928;-71
2022/11/13 11:55:31;;;;;;;;;;;9.60;93.30;;;;;;5056903;28;19968;-72
2022/11/13 11:57:59;;;;;;;;;;;9.70;93.30;;;;;;5053330;28;20066;-70
2022/11/13 12:00:27;;;;;;;;;;;9.80;93.30;;;;;;5051251;28;20305;-70
2022/11/13 12:03:08;;;;;;;;;;;9.80;93.30;;;;;;5051055;28;20749;-70
2022/11/13 12:05:41;;;;;;;;;;;9.80;93.30;;;;;;5055041;28;19928;-71
2022/11/13 12:08:14;;;;;;;;;;;9.90;93.10;;;;;;5056400;28;19940;-72
2022/11/13 12:10:46;;;;;;;;;;;9.90;93.00;;;;;;5053405;28;19929;-70
2022/11/13 12:13:25;;;;;;;;;;;10.00;92.90;;;;;;5050231;28;20012;-71
2022/11/13 12:15:57;;;;;;;;;;;10.00;92.90;;;;;;5057334;28;19936;-70
2022/11/13 12:18:27;;;;;;;;;;;10.10;92.90;;;;;;5056082;28;19939;-69
2022/11/13 12:20:59;;;;;;;;;;;10.10;92.70;;;;;;5054852;28;19935;-70
2022/11/13 12:23:33;;;;;;;;;;;10.20;92.80;;;;;;5049600;28;19932;-70
2022/11/13 12:26:02;;;;;;;;;;;10.40;92.40;;;;;;5051889;28;19932;-70
2022/11/13 12:28:32;;;;;;;;;;;10.60;92.00;;;;;;5059791;28;19963;-70
2022/11/13 12:31:05;;;;;;;;;;;10.60;91.90;;;;;;5060621;28;19929;-70
2022/11/13 12:33:37;;;;;;;;;;;10.70;92.00;;;;;;5057369;28;20690;-71
2022/11/13 12:36:04;;;;;;;;;;;10.70;91.90;;;;;;5049523;28;19932;-71
2022/11/13 12:38:34;;;;;;;;;;;10.70;92.00;;;;;;5059083;28;20622;-71
2022/11/13 12:41:04;;;;;;;;;;;10.70;92.10;;;;;;5049475;28;19929;-70
2022/11/13 12:43:36;;;;;;;;;;;10.70;92.10;;;;;;5051485;28;19929;-70
2022/11/13 12:46:06;;;;;;;;;;;10.70;92.10;;;;;;5060525;28;20034;-71
2022/11/13 12:48:33;;;;;;;;;;;10.70;92.10;;;;;;5049282;28;19929;-70
2022/11/13 12:51:02;;;;;;;;;;;10.70;92.10;;;;;;5061444;28;20556;-71
2022/11/13 12:53:30;;;;;;;;;;;10.80;92.10;;;;;;5065581;28;19928;-71
2022/11/13 12:55:59;;;;;;;;;;;10.80;92.10;;;;;;5066182;28;20002;-71
2022/11/13 12:58:26;;;;;;;;;;;10.80;92.10;;;;;;5066537;28;19968;-70
2022/11/13 13:00:55;;;;;;;;;;;10.90;92.10;;;;;;5061755;28;20024;-70
2022/11/13 13:03:29;;;;;;;;;;;10.90;92.00;;;;;;5061031;28;19932;-70
2022/11/13 13:06:12;;;;;;;;;;;10.90;92.00;;;;;;5065340;28;19929;-71
2022/11/13 13:08:56;;;;;;;;;;;10.90;91.90;;;;;;5063091;28;20044;-70
2022/11/13 13:11:29;;;;;;;;;;;10.90;91.90;;;;;;5063959;28;19925;-70
2022/11/13 13:14:00;;;;;;;;;;;11.00;92.00;;;;;;5062454;28;19928;-71
2022/11/13 13:16:29;;;;;;;;;;;11.00;91.80;;;;;;5059798;28;19929;-69
2022/11/13 13:19:05;;;;;;;;;;;11.00;91.90;;;;;;5058030;28;20813;-70
2022/11/13 13:21:40;;;;;;;;;;;11.00;91.70;;;;;;5062049;28;19928;-70
2022/11/13 13:24:07;;;;;;;;;;;11.10;91.70;;;;;;5062735;28;19928;-71
2022/11/13 13:26:43;;;;;;;;;;;11.10;91.70;;;;;;5062192;28;19934;-70
2022/11/13 13:29:16;;;;;;;;;;;11.20;91.70;;;;;;5059967;28;19929;-69
2022/11/13 13:31:48;;;;;;;;;;;11.20;91.60;;;;;;5059949;28;19936;-69
2022/11/13 13:34:22;;;;;;;;;;;11.20;91.70;;;;;;5060865;28;19929;-69
2022/11/13 13:36:53;;;;;;;;;;;11.30;91.70;;;;;;5057457;28;20404;-68
2022/11/13 13:39:26;;;;;;;;;;;11.30;91.50;;;;;;5059036;28;19929;-68
2022/11/13 13:41:59;;;;;;;;;;;11.40;91.40;;;;;;5052959;28;19935;-70
2022/11/13 13:44:32;;;;;;;;;;;11.40;91.60;;;;;;5056739;28;19932;-69
2022/11/13 13:46:59;;;;;;;;;;;11.40;91.70;;;;;;5053316;28;19925;-69
2022/11/13 13:49:27;;;;;;;;;;;11.40;91.70;;;;;;5058565;28;19983;-69
2022/11/13 13:51:55;;;;;;;;;;;11.50;91.50;;;;;;5061977;28;19971;-69
2022/11/13 13:54:24;;;;;;;;;;;11.50;91.50;;;;;;5062753;28;19928;-69
2022/11/13 13:56:52;;;;;;;;;;;11.60;91.40;;;;;;5054116;28;20456;-69
2022/11/13 13:59:19;;;;;;;;;;;11.60;91.20;;;;;;5057099;28;20338;-70
2022/11/13 14:01:53;;;;;;;;;;;11.60;91.20;;;;;;5055433;28;19935;-70
2022/11/13 14:04:20;;;;;;;;;;;11.50;91.40;;;;;;5058166;28;20320;-69
2022/11/13 14:06:47;;;;;;;;;;;11.60;91.60;;;;;;5059216;28;19932;-70
2022/11/13 14:09:18;;;;;;;;;;;11.50;91.60;;;;;;5053613;28;20235;-70
2022/11/13 14:11:46;;;;;;;;;;;11.50;91.70;;;;;;5056888;28;19932;-70
2022/11/13 14:14:16;;;;;;;;;;;11.50;91.60;;;;;;5054630;28;19933;-70
2022/11/13 14:16:46;;;;;;;;;;;11.40;91.70;;;;;;5055531;28;19954;-70
2022/11/13 14:19:13;;;;;;;;;;;11.40;91.70;;;;;;5057377;28;19928;-70
2022/11/13 14:21:40;;;;;;;;;;;11.30;91.80;;;;;;5057017;28;19925;-70
2022/11/13 14:24:09;;;;;;;;;;;11.30;91.90;;;;;;5059537;28;19932;-70
2022/11/13 14:26:37;;;;;;;;;;;11.20;92.00;;;;;;5058291;28;19932;-70
2022/11/13 14:29:03;;;;;;;;;;;11.20;92.20;;;;;;5052000;28;20422;-69
2022/11/13 14:31:32;;;;;;;;;;;11.20;92.30;;;;;;5057433;28;19928;-70
2022/11/13 14:34:01;;;;;;;;;;;11.10;92.30;;;;;;5061170;28;20747;-70
2022/11/13 14:36:30;;;;;;;;;;;11.00;92.40;;;;;;5057206;28;20480;-71